sensor_id;sensor_type;location;lat;lon;timestamp;temperature;humidity
32698;DHT22;19087;51.062;3.754;2024-02-15T00:00:13;13.70;99.90
32698;DHT22;19087;51.062;3.754;2024-02-15T00:02:45;13.50;99.90
32698;DHT22;19087;51.062;3.754;2024-02-15T00:05:11;13.60;99.90
32698;DHT22;19087;51.062;3.754;2024-02-15T00:07:39;13.60;99.90
32698;DHT22;19087;51.062;3.754;2024-02-15T00:10:08;13.60;99.90
32698;DHT22;19087;51.062;3.754;2024-02-15T00:12:34;13.50;99.90
32698;DHT22;19087;51.062;3.754;2024-02-15T00:15:00;13.50;99.90
32698;DHT22;19087;51.062;3.754;2024-02-15T00:17:29;13.40;99.90
32698;DHT22;19087;51.062;3.754;2024-02-15T00:20:04;13.30;99.90
32698;DHT22;19087;51.062;3.754;2024-02-15T00:22:42;13.30;99.90
32698;DHT22;19087;51.062;3.754;2024-02-15T00:25:08;13.30;99.90
32698;DHT22;19087;51.062;3.754;2024-02-15T00:27:35;13.30;99.90
32698;DHT22;19087;51.062;3.754;2024-02-15T00:30:03;13.40;99.90
32698;DHT22;19087;51.062;3.754;2024-02-15T00:32:33;13.40;99.90
32698;DHT22;19087;51.062;3.754;2024-02-15T00:35:04;13.40;99.90
32698;DHT22;19087;51.062;3.754;2024-02-15T00:37:34;13.30;99.90
32698;DHT22;19087;51.062;3.754;2024-02-15T00:40:03;13.30;99.90
32698;DHT22;19087;51.062;3.754;2024-02-15T00:42:30;13.40;99.90
32698;DHT22;19087;51.062;3.754;2024-02-15T00:44:57;13.40;99.90
32698;DHT22;19087;51.062;3.754;2024-02-15T00:47:29;13.30;99.90
32698;DHT22;19087;51.062;3.754;2024-02-15T00:49:56;13.40;99.90
32698;DHT22;19087;51.062;3.754;2024-02-15T00:52:25;13.40;99.90
32698;DHT22;19087;51.062;3.754;2024-02-15T00:54:53;13.50;99.90
32698;DHT22;19087;51.062;3.754;2024-02-15T00:57:20;13.50;99.90
32698;DHT22;19087;51.062;3.754;2024-02-15T00:59:46;13.60;99.90
32698;DHT22;19087;51.062;3.754;2024-02-15T01:02:14;13.60;99.90
32698;DHT22;19087;51.062;3.754;2024-02-15T01:04:41;13.60;99.90
32698;DHT22;19087;51.062;3.754;2024-02-15T01:07:11;13.60;99.90
32698;DHT22;19087;51.062;3.754;2024-02-15T01:09:38;13.50;99.90
32698;DHT22;19087;51.062;3.754;2024-02-15T01:12:04;13.50;99.90
32698;DHT22;19087;51.062;3.754;2024-02-15T01:14:30;13.60;99.90
32698;DHT22;19087;51.062;3.754;2024-02-15T01:16:56;13.60;99.90
32698;DHT22;19087;51.062;3.754;2024-02-15T01:19:22;13.60;99.90
32698;DHT22;19087;51.062;3.754;2024-02-15T01:21:49;13.70;99.90
32698;DHT22;19087;51.062;3.754;2024-02-15T01:24:16;13.70;99.90
32698;DHT22;19087;51.062;3.754;2024-02-15T01:26:41;13.60;99.90
32698;DHT22;19087;51.062;3.754;2024-02-15T01:29:07;13.70;99.90
32698;DHT22;19087;51.062;3.754;2024-02-15T01:31:36;13.60;99.90
32698;DHT22;19087;51.062;3.754;2024-02-15T01:34:01;13.70;99.90
32698;DHT22;19087;51.062;3.754;2024-02-15T01:36:28;13.70;99.90
32698;DHT22;19087;51.062;3.754;2024-02-15T01:38:53;13.70;99.90
32698;DHT22;19087;51.062;3.754;2024-02-15T01:41:19;13.70;99.90
32698;DHT22;19087;51.062;3.754;2024-02-15T01:43:45;13.70;99.90
32698;DHT22;19087;51.062;3.754;2024-02-15T01:46:11;13.70;99.90
32698;DHT22;19087;51.062;3.754;2024-02-15T01:48:40;13.70;99.90
32698;DHT22;19087;51.062;3.754;2024-02-15T01:51:07;13.70;99.90
32698;DHT22;19087;51.062;3.754;2024-02-15T01:53:35;13.70;99.90
32698;DHT22;19087;51.062;3.754;2024-02-15T01:56:03;13.60;99.90
32698;DHT22;19087;51.062;3.754;2024-02-15T01:58:30;13.60;99.90
32698;DHT22;19087;51.062;3.754;2024-02-15T02:01:00;13.60;99.90
32698;DHT22;19087;51.062;3.754;2024-02-15T02:03:28;13.50;99.90
32698;DHT22;19087;51.062;3.754;2024-02-15T02:05:56;13.60;99.90
32698;DHT22;19087;51.062;3.754;2024-02-15T02:08:21;13.50;99.90
32698;DHT22;19087;51.062;3.754;2024-02-15T02:10:47;13.50;99.90
32698;DHT22;19087;51.062;3.754;2024-02-15T02:13:13;13.50;99.90
32698;DHT22;19087;51.062;3.754;2024-02-15T02:15:40;13.40;99.90
32698;DHT22;19087;51.062;3.754;2024-02-15T02:18:06;13.30;99.90
32698;DHT22;19087;51.062;3.754;2024-02-15T02:20:32;13.40;99.90
32698;DHT22;19087;51.062;3.754;2024-02-15T02:23:20;13.40;99.90
32698;DHT22;19087;51.062;3.754;2024-02-15T02:25:48;13.40;99.90
32698;DHT22;19087;51.062;3.754;2024-02-15T02:28:15;13.40;99.90
32698;DHT22;19087;51.062;3.754;2024-02-15T02:30:43;13.40;99.90
32698;DHT22;19087;51.062;3.754;2024-02-15T02:33:14;13.40;99.90
32698;DHT22;19087;51.062;3.754;2024-02-15T02:35:44;13.40;99.90
32698;DHT22;19087;51.062;3.754;2024-02-15T02:38:11;13.40;99.90
32698;DHT22;19087;51.062;3.754;2024-02-15T02:40:37;13.40;99.90
32698;DHT22;19087;51.062;3.754;2024-02-15T02:43:02;13.40;99.90
32698;DHT22;19087;51.062;3.754;2024-02-15T02:45:28;13.50;99.90
32698;DHT22;19087;51.062;3.754;2024-02-15T02:47:55;13.40;99.90
32698;DHT22;19087;51.062;3.754;2024-02-15T02:50:22;13.50;99.90
32698;DHT22;19087;51.062;3.754;2024-02-15T02:52:50;13.50;99.90
32698;DHT22;19087;51.062;3.754;2024-02-15T02:55:16;13.50;99.90
32698;DHT22;19087;51.062;3.754;2024-02-15T02:57:42;13.50;99.90
32698;DHT22;19087;51.062;3.754;2024-02-15T03:00:11;13.40;99.90
32698;DHT22;19087;51.062;3.754;2024-02-15T03:02:39;13.30;99.90
32698;DHT22;19087;51.062;3.754;2024-02-15T03:05:07;13.40;99.90
32698;DHT22;19087;51.062;3.754;2024-02-15T03:07:34;13.40;99.90
32698;DHT22;19087;51.062;3.754;2024-02-15T03:10:01;13.30;99.90
32698;DHT22;19087;51.062;3.754;2024-02-15T03:12:31;13.30;99.90
32698;DHT22;19087;51.062;3.754;2024-02-15T03:14:58;13.20;99.90
32698;DHT22;19087;51.062;3.754;2024-02-15T03:17:24;13.20;99.90
32698;DHT22;19087;51.062;3.754;2024-02-15T03:19:49;13.10;99.90
32698;DHT22;19087;51.062;3.754;2024-02-15T03:22:16;13.10;99.90
32698;DHT22;19087;51.062;3.754;2024-02-15T03:24:42;13.10;99.90
32698;DHT22;19087;51.062;3.754;2024-02-15T03:27:08;13.10;99.90
32698;DHT22;19087;51.062;3.754;2024-02-15T03:29:38;13.10;99.90
32698;DHT22;19087;51.062;3.754;2024-02-15T03:32:04;13.10;99.90
32698;DHT22;19087;51.062;3.754;2024-02-15T03:34:31;13.20;99.90
32698;DHT22;19087;51.062;3.754;2024-02-15T03:36:58;13.10;99.90
32698;DHT22;19087;51.062;3.754;2024-02-15T03:39:24;13.10;99.90
32698;DHT22;19087;51.062;3.754;2024-02-15T03:41:50;13.00;99.90
32698;DHT22;19087;51.062;3.754;2024-02-15T03:44:18;13.10;99.90
32698;DHT22;19087;51.062;3.754;2024-02-15T03:46:45;13.00;99.90
32698;DHT22;19087;51.062;3.754;2024-02-15T03:49:18;13.00;99.90
32698;DHT22;19087;51.062;3.754;2024-02-15T03:51:44;13.10;99.90
32698;DHT22;19087;51.062;3.754;2024-02-15T03:54:11;13.10;99.90
32698;DHT22;19087;51.062;3.754;2024-02-15T03:56:45;13.10;99.90
32698;DHT22;19087;51.062;3.754;2024-02-15T03:59:11;13.00;99.90
32698;DHT22;19087;51.062;3.754;2024-02-15T04:01:38;13.10;99.90
32698;DHT22;19087;51.062;3.754;2024-02-15T04:04:05;13.10;99.90
32698;DHT22;19087;51.062;3.754;2024-02-15T04:06:32;13.10;99.90
32698;DHT22;19087;51.062;3.754;2024-02-15T04:08:59;13.20;99.90
32698;DHT22;19087;51.062;3.754;2024-02-15T04:11:25;13.20;99.90
32698;DHT22;19087;51.062;3.754;2024-02-15T04:13:51;13.20;99.90
32698;DHT22;19087;51.062;3.754;2024-02-15T04:16:17;13.20;99.90
32698;DHT22;19087;51.062;3.754;2024-02-15T04:18:43;13.10;99.90
32698;DHT22;19087;51.062;3.754;2024-02-15T04:21:10;13.20;99.90
32698;DHT22;19087;51.062;3.754;2024-02-15T04:23:36;13.20;99.90
32698;DHT22;19087;51.062;3.754;2024-02-15T04:26:03;13.20;99.90
32698;DHT22;19087;51.062;3.754;2024-02-15T04:28:30;13.20;99.90
32698;DHT22;19087;51.062;3.754;2024-02-15T04:30:57;13.20;99.90
32698;DHT22;19087;51.062;3.754;2024-02-15T04:33:24;13.10;99.90
32698;DHT22;19087;51.062;3.754;2024-02-15T04:35:51;13.10;99.90
32698;DHT22;19087;51.062;3.754;2024-02-15T04:38:17;13.20;99.90
32698;DHT22;19087;51.062;3.754;2024-02-15T04:40:44;13.20;99.90
32698;DHT22;19087;51.062;3.754;2024-02-15T04:43:11;13.30;99.90
32698;DHT22;19087;51.062;3.754;2024-02-15T04:45:37;13.20;99.90
32698;DHT22;19087;51.062;3.754;2024-02-15T04:48:03;13.20;99.90
32698;DHT22;19087;51.062;3.754;2024-02-15T04:50:29;13.30;99.90
32698;DHT22;19087;51.062;3.754;2024-02-15T04:52:55;13.20;99.90
32698;DHT22;19087;51.062;3.754;2024-02-15T04:55:21;13.10;99.90
32698;DHT22;19087;51.062;3.754;2024-02-15T04:57:49;13.10;99.90
32698;DHT22;19087;51.062;3.754;2024-02-15T05:00:15;13.20;99.90
32698;DHT22;19087;51.062;3.754;2024-02-15T05:02:42;13.20;99.90
32698;DHT22;19087;51.062;3.754;2024-02-15T05:05:11;13.30;99.90
32698;DHT22;19087;51.062;3.754;2024-02-15T05:07:39;13.30;99.90
32698;DHT22;19087;51.062;3.754;2024-02-15T05:10:06;13.40;99.90
32698;DHT22;19087;51.062;3.754;2024-02-15T05:12:34;13.30;99.90
32698;DHT22;19087;51.062;3.754;2024-02-15T05:15:00;13.30;99.90
32698;DHT22;19087;51.062;3.754;2024-02-15T05:17:27;13.30;99.90
32698;DHT22;19087;51.062;3.754;2024-02-15T05:19:55;13.30;99.90
32698;DHT22;19087;51.062;3.754;2024-02-15T05:22:25;13.30;99.90
32698;DHT22;19087;51.062;3.754;2024-02-15T05:24:55;13.40;99.90
32698;DHT22;19087;51.062;3.754;2024-02-15T05:27:21;13.40;99.90
32698;DHT22;19087;51.062;3.754;2024-02-15T05:29:46;13.50;99.90
32698;DHT22;19087;51.062;3.754;2024-02-15T05:32:15;13.50;99.90
32698;DHT22;19087;51.062;3.754;2024-02-15T05:34:42;13.50;99.90
32698;DHT22;19087;51.062;3.754;2024-02-15T05:37:09;13.50;99.90
32698;DHT22;19087;51.062;3.754;2024-02-15T05:39:36;13.50;99.90
32698;DHT22;19087;51.062;3.754;2024-02-15T05:42:02;13.60;99.90
32698;DHT22;19087;51.062;3.754;2024-02-15T05:44:27;13.50;99.90
32698;DHT22;19087;51.062;3.754;2024-02-15T05:46:53;13.50;99.90
32698;DHT22;19087;51.062;3.754;2024-02-15T05:49:19;13.60;99.90
32698;DHT22;19087;51.062;3.754;2024-02-15T05:51:45;13.70;99.90
32698;DHT22;19087;51.062;3.754;2024-02-15T05:54:12;13.60;99.90
32698;DHT22;19087;51.062;3.754;2024-02-15T05:56:41;13.60;99.90
32698;DHT22;19087;51.062;3.754;2024-02-15T05:59:07;13.60;99.90
32698;DHT22;19087;51.062;3.754;2024-02-15T06:01:37;13.60;99.90
32698;DHT22;19087;51.062;3.754;2024-02-15T06:04:05;13.60;99.90
32698;DHT22;19087;51.062;3.754;2024-02-15T06:06:34;13.60;99.90
32698;DHT22;19087;51.062;3.754;2024-02-15T06:09:01;13.60;99.90
32698;DHT22;19087;51.062;3.754;2024-02-15T06:11:29;13.60;99.90
32698;DHT22;19087;51.062;3.754;2024-02-15T06:13:55;13.60;99.90
32698;DHT22;19087;51.062;3.754;2024-02-15T06:16:22;13.60;99.90
32698;DHT22;19087;51.062;3.754;2024-02-15T06:18:49;13.60;99.90
32698;DHT22;19087;51.062;3.754;2024-02-15T06:21:15;13.60;99.90
32698;DHT22;19087;51.062;3.754;2024-02-15T06:23:41;13.60;99.90
32698;DHT22;19087;51.062;3.754;2024-02-15T06:26:07;13.60;99.90
32698;DHT22;19087;51.062;3.754;2024-02-15T06:28:33;13.60;99.90
32698;DHT22;19087;51.062;3.754;2024-02-15T06:31:17;13.60;99.90
32698;DHT22;19087;51.062;3.754;2024-02-15T06:34:15;13.70;99.90
32698;DHT22;19087;51.062;3.754;2024-02-15T06:36:59;13.80;99.90
32698;DHT22;19087;51.062;3.754;2024-02-15T06:39:44;13.80;99.90
32698;DHT22;19087;51.062;3.754;2024-02-15T06:42:16;13.80;99.90
32698;DHT22;19087;51.062;3.754;2024-02-15T06:44:44;13.80;99.90
32698;DHT22;19087;51.062;3.754;2024-02-15T06:47:13;13.80;99.90
32698;DHT22;19087;51.062;3.754;2024-02-15T06:49:41;13.80;99.90
32698;DHT22;19087;51.062;3.754;2024-02-15T06:52:07;13.80;99.90
32698;DHT22;19087;51.062;3.754;2024-02-15T06:54:38;13.90;99.90
32698;DHT22;19087;51.062;3.754;2024-02-15T06:57:05;13.90;99.90
32698;DHT22;19087;51.062;3.754;2024-02-15T06:59:31;13.90;99.90
32698;DHT22;19087;51.062;3.754;2024-02-15T07:01:58;13.90;99.90
32698;DHT22;19087;51.062;3.754;2024-02-15T07:04:24;13.90;99.90
32698;DHT22;19087;51.062;3.754;2024-02-15T07:06:52;13.80;99.90
32698;DHT22;19087;51.062;3.754;2024-02-15T07:09:22;14.00;99.90
32698;DHT22;19087;51.062;3.754;2024-02-15T07:11:50;13.90;99.90
32698;DHT22;19087;51.062;3.754;2024-02-15T07:14:16;13.90;99.90
32698;DHT22;19087;51.062;3.754;2024-02-15T07:16:48;13.90;99.90
32698;DHT22;19087;51.062;3.754;2024-02-15T07:19:15;14.00;99.90
32698;DHT22;19087;51.062;3.754;2024-02-15T07:21:41;14.10;99.90
32698;DHT22;19087;51.062;3.754;2024-02-15T07:24:07;14.20;99.90
32698;DHT22;19087;51.062;3.754;2024-02-15T07:26:33;14.30;99.90
32698;DHT22;19087;51.062;3.754;2024-02-15T07:29:01;14.40;99.90
32698;DHT22;19087;51.062;3.754;2024-02-15T07:31:29;14.20;99.90
32698;DHT22;19087;51.062;3.754;2024-02-15T07:33:55;13.80;99.90
32698;DHT22;19087;51.062;3.754;2024-02-15T07:36:22;13.80;99.90
32698;DHT22;19087;51.062;3.754;2024-02-15T07:38:52;13.70;99.90
32698;DHT22;19087;51.062;3.754;2024-02-15T07:41:20;13.60;99.90
32698;DHT22;19087;51.062;3.754;2024-02-15T07:43:51;13.40;99.90
32698;DHT22;19087;51.062;3.754;2024-02-15T07:46:21;13.40;99.90
32698;DHT22;19087;51.062;3.754;2024-02-15T07:48:50;13.40;99.90
32698;DHT22;19087;51.062;3.754;2024-02-15T07:51:18;13.40;99.90
32698;DHT22;19087;51.062;3.754;2024-02-15T07:53:44;13.40;99.90
32698;DHT22;19087;51.062;3.754;2024-02-15T07:56:10;13.30;99.90
32698;DHT22;19087;51.062;3.754;2024-02-15T07:58:45;13.30;99.90
32698;DHT22;19087;51.062;3.754;2024-02-15T08:01:16;13.10;99.90
32698;DHT22;19087;51.062;3.754;2024-02-15T08:03:44;13.00;99.90
32698;DHT22;19087;51.062;3.754;2024-02-15T08:06:11;12.90;99.90
32698;DHT22;19087;51.062;3.754;2024-02-15T08:08:39;12.90;99.90
32698;DHT22;19087;51.062;3.754;2024-02-15T08:11:08;12.80;99.90
32698;DHT22;19087;51.062;3.754;2024-02-15T08:13:52;12.80;99.90
32698;DHT22;19087;51.062;3.754;2024-02-15T08:16:21;12.80;99.90
32698;DHT22;19087;51.062;3.754;2024-02-15T08:18:55;12.80;99.90
32698;DHT22;19087;51.062;3.754;2024-02-15T08:21:30;12.60;99.90
32698;DHT22;19087;51.062;3.754;2024-02-15T08:24:04;12.60;99.90
32698;DHT22;19087;51.062;3.754;2024-02-15T08:26:39;12.60;99.90
32698;DHT22;19087;51.062;3.754;2024-02-15T08:29:06;12.70;99.90
32698;DHT22;19087;51.062;3.754;2024-02-15T08:31:32;12.80;99.90
32698;DHT22;19087;51.062;3.754;2024-02-15T08:33:58;12.80;99.90
32698;DHT22;19087;51.062;3.754;2024-02-15T08:36:24;12.80;99.90
32698;DHT22;19087;51.062;3.754;2024-02-15T08:38:50;12.90;99.90
32698;DHT22;19087;51.062;3.754;2024-02-15T08:41:16;12.90;99.90
32698;DHT22;19087;51.062;3.754;2024-02-15T08:43:46;13.00;99.90
32698;DHT22;19087;51.062;3.754;2024-02-15T08:46:14;13.10;99.90
32698;DHT22;19087;51.062;3.754;2024-02-15T08:48:41;13.10;99.90
32698;DHT22;19087;51.062;3.754;2024-02-15T08:51:07;13.20;99.90
32698;DHT22;19087;51.062;3.754;2024-02-15T08:53:35;13.30;99.90
32698;DHT22;19087;51.062;3.754;2024-02-15T08:56:07;13.40;99.90
32698;DHT22;19087;51.062;3.754;2024-02-15T08:58:35;13.40;99.90
32698;DHT22;19087;51.062;3.754;2024-02-15T09:01:02;13.50;99.90
32698;DHT22;19087;51.062;3.754;2024-02-15T09:03:30;13.70;99.90
32698;DHT22;19087;51.062;3.754;2024-02-15T09:05:56;13.80;99.90
32698;DHT22;19087;51.062;3.754;2024-02-15T09:08:23;13.90;99.90
32698;DHT22;19087;51.062;3.754;2024-02-15T09:10:52;14.00;99.90
32698;DHT22;19087;51.062;3.754;2024-02-15T09:13:19;14.10;99.90
32698;DHT22;19087;51.062;3.754;2024-02-15T09:15:45;14.20;99.90
32698;DHT22;19087;51.062;3.754;2024-02-15T09:18:12;14.40;99.90
32698;DHT22;19087;51.062;3.754;2024-02-15T09:20:46;14.60;99.90
32698;DHT22;19087;51.062;3.754;2024-02-15T09:23:13;14.50;99.90
32698;DHT22;19087;51.062;3.754;2024-02-15T09:25:40;14.50;99.90
32698;DHT22;19087;51.062;3.754;2024-02-15T09:28:09;14.60;99.90
32698;DHT22;19087;51.062;3.754;2024-02-15T09:30:35;14.60;99.90
32698;DHT22;19087;51.062;3.754;2024-02-15T09:33:01;14.70;99.90
32698;DHT22;19087;51.062;3.754;2024-02-15T09:35:32;14.70;99.90
32698;DHT22;19087;51.062;3.754;2024-02-15T09:37:58;14.80;99.90
32698;DHT22;19087;51.062;3.754;2024-02-15T09:40:23;15.00;99.90
32698;DHT22;19087;51.062;3.754;2024-02-15T09:42:52;15.00;99.90
32698;DHT22;19087;51.062;3.754;2024-02-15T09:45:18;15.00;99.90
32698;DHT22;19087;51.062;3.754;2024-02-15T09:47:46;15.00;99.90
32698;DHT22;19087;51.062;3.754;2024-02-15T09:50:16;15.20;99.90
32698;DHT22;19087;51.062;3.754;2024-02-15T09:52:51;15.20;99.90
32698;DHT22;19087;51.062;3.754;2024-02-15T09:55:18;15.10;99.90
32698;DHT22;19087;51.062;3.754;2024-02-15T09:57:46;15.10;99.90
32698;DHT22;19087;51.062;3.754;2024-02-15T10:00:12;15.30;99.90
32698;DHT22;19087;51.062;3.754;2024-02-15T10:02:43;15.30;99.90
32698;DHT22;19087;51.062;3.754;2024-02-15T10:05:12;15.50;99.90
32698;DHT22;19087;51.062;3.754;2024-02-15T10:07:45;15.50;99.90
32698;DHT22;19087;51.062;3.754;2024-02-15T10:10:29;15.50;99.90
32698;DHT22;19087;51.062;3.754;2024-02-15T10:12:55;15.50;99.90
32698;DHT22;19087;51.062;3.754;2024-02-15T10:17:55;15.80;99.90
32698;DHT22;19087;51.062;3.754;2024-02-15T10:20:24;15.90;99.90
32698;DHT22;19087;51.062;3.754;2024-02-15T10:25:26;16.10;99.90
32698;DHT22;19087;51.062;3.754;2024-02-15T10:28:05;16.40;99.90
32698;DHT22;19087;51.062;3.754;2024-02-15T10:30:36;16.40;99.90
32698;DHT22;19087;51.062;3.754;2024-02-15T10:33:03;16.50;99.90
32698;DHT22;19087;51.062;3.754;2024-02-15T10:35:31;16.60;99.90
32698;DHT22;19087;51.062;3.754;2024-02-15T10:38:10;16.80;99.90
32698;DHT22;19087;51.062;3.754;2024-02-15T10:40:37;16.70;99.90
32698;DHT22;19087;51.062;3.754;2024-02-15T10:43:03;16.70;99.90
32698;DHT22;19087;51.062;3.754;2024-02-15T10:45:31;16.90;99.90
32698;DHT22;19087;51.062;3.754;2024-02-15T10:47:57;16.90;99.90
32698;DHT22;19087;51.062;3.754;2024-02-15T10:50:24;17.10;99.90
32698;DHT22;19087;51.062;3.754;2024-02-15T10:52:58;17.10;99.90
32698;DHT22;19087;51.062;3.754;2024-02-15T10:58:26;16.90;99.90
32698;DHT22;19087;51.062;3.754;2024-02-15T11:00:59;17.00;99.90
32698;DHT22;19087;51.062;3.754;2024-02-15T11:03:43;17.10;99.90
32698;DHT22;19087;51.062;3.754;2024-02-15T11:06:14;17.10;99.90
32698;DHT22;19087;51.062;3.754;2024-02-15T11:08:42;17.10;99.90
32698;DHT22;19087;51.062;3.754;2024-02-15T11:11:12;17.00;99.90
32698;DHT22;19087;51.062;3.754;2024-02-15T11:13:40;17.00;99.90
32698;DHT22;19087;51.062;3.754;2024-02-15T11:16:41;17.10;99.90
32698;DHT22;19087;51.062;3.754;2024-02-15T11:22:09;16.90;99.90
32698;DHT22;19087;51.062;3.754;2024-02-15T11:24:37;16.70;99.90
32698;DHT22;19087;51.062;3.754;2024-02-15T11:27:06;16.70;99.90
32698;DHT22;19087;51.062;3.754;2024-02-15T11:29:51;16.60;99.90
32698;DHT22;19087;51.062;3.754;2024-02-15T11:35:08;16.80;99.90
32698;DHT22;19087;51.062;3.754;2024-02-15T11:40:25;16.90;99.90
32698;DHT22;19087;51.062;3.754;2024-02-15T11:42:58;17.10;99.90
32698;DHT22;19087;51.062;3.754;2024-02-15T11:45:29;17.20;99.90
32698;DHT22;19087;51.062;3.754;2024-02-15T11:48:08;17.30;99.90
32698;DHT22;19087;51.062;3.754;2024-02-15T11:50:37;17.40;99.90
32698;DHT22;19087;51.062;3.754;2024-02-15T11:53:04;17.70;99.90
32698;DHT22;19087;51.062;3.754;2024-02-15T11:55:41;18.00;99.90
32698;DHT22;19087;51.062;3.754;2024-02-15T11:58:08;18.10;99.90
32698;DHT22;19087;51.062;3.754;2024-02-15T12:00:36;18.10;99.90
32698;DHT22;19087;51.062;3.754;2024-02-15T12:03:22;18.20;99.90
32698;DHT22;19087;51.062;3.754;2024-02-15T12:06:08;18.30;99.90
32698;DHT22;19087;51.062;3.754;2024-02-15T12:08:53;18.50;99.90
32698;DHT22;19087;51.062;3.754;2024-02-15T12:11:39;18.30;99.90
32698;DHT22;19087;51.062;3.754;2024-02-15T12:14:24;18.50;99.90
32698;DHT22;19087;51.062;3.754;2024-02-15T12:17:10;18.50;99.90
32698;DHT22;19087;51.062;3.754;2024-02-15T12:19:56;18.50;99.90
32698;DHT22;19087;51.062;3.754;2024-02-15T12:22:32;18.40;99.90
32698;DHT22;19087;51.062;3.754;2024-02-15T12:25:02;18.40;99.90
32698;DHT22;19087;51.062;3.754;2024-02-15T12:27:40;18.40;99.90
32698;DHT22;19087;51.062;3.754;2024-02-15T12:30:16;18.30;99.90
32698;DHT22;19087;51.062;3.754;2024-02-15T12:32:46;18.40;99.90
32698;DHT22;19087;51.062;3.754;2024-02-15T12:35:21;18.60;99.90
32698;DHT22;19087;51.062;3.754;2024-02-15T12:40:37;18.80;99.90
32698;DHT22;19087;51.062;3.754;2024-02-15T12:43:05;19.00;99.90
32698;DHT22;19087;51.062;3.754;2024-02-15T12:45:32;19.10;99.90
32698;DHT22;19087;51.062;3.754;2024-02-15T12:48:03;18.90;99.90
32698;DHT22;19087;51.062;3.754;2024-02-15T12:50:31;18.80;99.90
32698;DHT22;19087;51.062;3.754;2024-02-15T12:52:58;18.60;99.90
32698;DHT22;19087;51.062;3.754;2024-02-15T12:55:33;18.70;99.90
32698;DHT22;19087;51.062;3.754;2024-02-15T12:58:13;18.80;99.90
32698;DHT22;19087;51.062;3.754;2024-02-15T13:00:40;18.50;99.90
32698;DHT22;19087;51.062;3.754;2024-02-15T13:03:07;18.50;99.90
32698;DHT22;19087;51.062;3.754;2024-02-15T13:05:37;18.60;99.90
32698;DHT22;19087;51.062;3.754;2024-02-15T13:08:03;18.70;99.90
32698;DHT22;19087;51.062;3.754;2024-02-15T13:10:37;18.60;99.90
32698;DHT22;19087;51.062;3.754;2024-02-15T13:13:07;18.50;99.90
32698;DHT22;19087;51.062;3.754;2024-02-15T13:15:35;18.60;99.90
32698;DHT22;19087;51.062;3.754;2024-02-15T13:18:03;18.70;99.90
32698;DHT22;19087;51.062;3.754;2024-02-15T13:20:31;18.70;99.90
32698;DHT22;19087;51.062;3.754;2024-02-15T13:23:04;18.80;99.90
32698;DHT22;19087;51.062;3.754;2024-02-15T13:25:51;18.80;99.90
32698;DHT22;19087;51.062;3.754;2024-02-15T13:28:17;18.80;99.90
32698;DHT22;19087;51.062;3.754;2024-02-15T13:30:43;18.90;99.90
32698;DHT22;19087;51.062;3.754;2024-02-15T13:33:14;18.90;99.90
32698;DHT22;19087;51.062;3.754;2024-02-15T13:35:39;18.90;99.90
32698;DHT22;19087;51.062;3.754;2024-02-15T13:38:08;18.90;99.90
32698;DHT22;19087;51.062;3.754;2024-02-15T13:40:41;18.80;99.90
32698;DHT22;19087;51.062;3.754;2024-02-15T13:43:07;18.70;99.90
32698;DHT22;19087;51.062;3.754;2024-02-15T13:45:41;18.50;99.90
32698;DHT22;19087;51.062;3.754;2024-02-15T13:48:08;18.30;99.90
32698;DHT22;19087;51.062;3.754;2024-02-15T13:50:34;18.30;99.90
32698;DHT22;19087;51.062;3.754;2024-02-15T13:53:02;18.30;99.90
32698;DHT22;19087;51.062;3.754;2024-02-15T13:55:28;18.30;99.90
32698;DHT22;19087;51.062;3.754;2024-02-15T13:57:55;18.40;99.90
32698;DHT22;19087;51.062;3.754;2024-02-15T14:00:22;18.40;99.90
32698;DHT22;19087;51.062;3.754;2024-02-15T14:02:52;18.30;99.90
32698;DHT22;19087;51.062;3.754;2024-02-15T14:05:23;18.40;99.90
32698;DHT22;19087;51.062;3.754;2024-02-15T14:08:04;18.40;99.90
32698;DHT22;19087;51.062;3.754;2024-02-15T14:10:32;18.40;99.90
32698;DHT22;19087;51.062;3.754;2024-02-15T14:13:00;18.30;99.90
32698;DHT22;19087;51.062;3.754;2024-02-15T14:15:32;18.30;99.90
32698;DHT22;19087;51.062;3.754;2024-02-15T14:18:08;18.30;99.90
32698;DHT22;19087;51.062;3.754;2024-02-15T14:20:37;18.20;99.90
32698;DHT22;19087;51.062;3.754;2024-02-15T14:23:03;18.30;99.90
32698;DHT22;19087;51.062;3.754;2024-02-15T14:25:32;18.20;99.90
32698;DHT22;19087;51.062;3.754;2024-02-15T14:27:58;18.30;99.90
32698;DHT22;19087;51.062;3.754;2024-02-15T14:30:27;18.30;99.90
32698;DHT22;19087;51.062;3.754;2024-02-15T14:33:12;18.30;99.90
32698;DHT22;19087;51.062;3.754;2024-02-15T14:35:42;18.40;99.90
32698;DHT22;19087;51.062;3.754;2024-02-15T14:38:12;18.50;99.90
32698;DHT22;19087;51.062;3.754;2024-02-15T14:40:40;18.40;99.90
32698;DHT22;19087;51.062;3.754;2024-02-15T14:43:06;18.40;99.90
32698;DHT22;19087;51.062;3.754;2024-02-15T14:45:40;18.40;99.90
32698;DHT22;19087;51.062;3.754;2024-02-15T14:48:11;18.30;99.90
32698;DHT22;19087;51.062;3.754;2024-02-15T14:50:41;18.30;99.90
32698;DHT22;19087;51.062;3.754;2024-02-15T14:53:08;18.30;99.90
32698;DHT22;19087;51.062;3.754;2024-02-15T14:55:35;18.40;99.90
32698;DHT22;19087;51.062;3.754;2024-02-15T14:58:01;18.30;99.90
32698;DHT22;19087;51.062;3.754;2024-02-15T15:00:26;18.20;99.90
32698;DHT22;19087;51.062;3.754;2024-02-15T15:02:53;18.20;99.90
32698;DHT22;19087;51.062;3.754;2024-02-15T15:05:22;18.10;99.90
32698;DHT22;19087;51.062;3.754;2024-02-15T15:08:06;18.20;99.90
32698;DHT22;19087;51.062;3.754;2024-02-15T15:10:51;18.20;99.90
32698;DHT22;19087;51.062;3.754;2024-02-15T15:13:36;18.20;99.90
32698;DHT22;19087;51.062;3.754;2024-02-15T15:16:03;18.10;99.90
32698;DHT22;19087;51.062;3.754;2024-02-15T15:18:30;18.10;99.90
32698;DHT22;19087;51.062;3.754;2024-02-15T15:21:03;18.00;99.90
32698;DHT22;19087;51.062;3.754;2024-02-15T15:23:29;17.80;99.90
32698;DHT22;19087;51.062;3.754;2024-02-15T15:25:57;17.70;99.90
32698;DHT22;19087;51.062;3.754;2024-02-15T15:28:24;17.70;99.90
32698;DHT22;19087;51.062;3.754;2024-02-15T15:30:50;17.50;99.90
32698;DHT22;19087;51.062;3.754;2024-02-15T15:33:17;17.50;99.90
32698;DHT22;19087;51.062;3.754;2024-02-15T15:35:52;17.40;99.90
32698;DHT22;19087;51.062;3.754;2024-02-15T15:38:21;17.30;99.90
32698;DHT22;19087;51.062;3.754;2024-02-15T15:40:50;17.10;99.90
32698;DHT22;19087;51.062;3.754;2024-02-15T15:43:16;17.20;99.90
32698;DHT22;19087;51.062;3.754;2024-02-15T15:45:42;17.00;99.90
32698;DHT22;19087;51.062;3.754;2024-02-15T15:48:09;16.90;99.90
32698;DHT22;19087;51.062;3.754;2024-02-15T15:50:37;16.90;99.90
32698;DHT22;19087;51.062;3.754;2024-02-15T15:53:06;16.90;99.90
32698;DHT22;19087;51.062;3.754;2024-02-15T15:55:32;16.80;99.90
32698;DHT22;19087;51.062;3.754;2024-02-15T15:57:59;16.70;99.90
32698;DHT22;19087;51.062;3.754;2024-02-15T16:00:27;16.70;99.90